Time;durP1;ratioP1;P1;durP2;ratioP2;P2;SDS_P1;SDS_P2;PMS_P1;PMS_P2;Temp;Humidity;BMP_temperature;BMP_pressure;BME280_temperature;BME280_humidity;BME280_pressure;Samples;Min_cycle;Max_cycle;Signal;HPM_P1;HPM_P2
2023/12/04 00:01:53;;;;;;;13.77;6.60;;;-1.20;1.00;;;;;;5004171;28;20213;-74
2023/12/04 00:04:18;;;;;;;14.80;7.17;;;-0.10;1.00;;;;;;5006131;28;21050;-74
2023/12/04 00:06:44;;;;;;;16.43;7.27;;;-0.80;1.00;;;;;;4993005;28;20615;-74
2023/12/04 00:09:10;;;;;;;16.17;7.00;;;-0.80;1.00;;;;;;4998090;28;20697;-76
2023/12/04 00:11:35;;;;;;;12.40;7.10;;;-0.80;1.00;;;;;;4989610;28;20207;-74
2023/12/04 00:14:00;;;;;;;20.10;8.20;;;-0.40;1.00;;;;;;4995968;28;20198;-74
2023/12/04 00:16:26;;;;;;;13.33;7.20;;;-0.70;1.00;;;;;;4995611;28;20262;-76
2023/12/04 00:18:52;;;;;;;11.40;6.40;;;-0.90;1.00;;;;;;5021582;28;20199;-75
2023/12/04 00:21:18;;;;;;;13.83;6.47;;;-0.40;1.00;;;;;;4990689;28;20441;-75
2023/12/04 00:23:43;;;;;;;12.93;6.57;;;-0.90;1.00;;;;;;4999577;28;20179;-74
2023/12/04 00:26:09;;;;;;;15.33;6.03;;;-0.50;1.00;;;;;;4993006;28;20215;-74
2023/12/04 00:28:37;;;;;;;11.57;5.90;;;-0.80;1.00;;;;;;4997363;28;20203;-75
2023/12/04 00:31:03;;;;;;;20.00;7.33;;;-0.80;1.00;;;;;;4992018;28;20246;-73
2023/12/04 00:33:29;;;;;;;15.13;6.50;;;-0.80;1.00;;;;;;4994635;28;20443;-76
2023/12/04 00:35:54;;;;;;;17.63;7.80;;;-0.80;1.00;;;;;;4998160;28;20194;-74
2023/12/04 00:38:20;;;;;;;16.17;7.23;;;-0.70;1.00;;;;;;5021033;28;20269;-74
2023/12/04 00:40:45;;;;;;;14.17;6.47;;;-0.60;1.00;;;;;;4988762;28;20241;-74
2023/12/04 00:43:11;;;;;;;12.70;6.40;;;-0.70;1.00;;;;;;4995565;28;20183;-75
2023/12/04 00:45:37;;;;;;;14.23;6.10;;;-1.20;1.00;;;;;;4992283;28;20210;-74
2023/12/04 00:48:02;;;;;;;11.57;6.00;;;-0.80;1.00;;;;;;5000225;28;20182;-74
2023/12/04 00:50:28;;;;;;;12.83;6.27;;;-0.80;1.00;;;;;;4995392;28;20215;-74
2023/12/04 00:52:53;;;;;;;12.80;6.07;;;-0.90;1.00;;;;;;5005300;28;20194;-74
2023/12/04 00:55:19;;;;;;;11.93;6.07;;;-0.80;1.00;;;;;;4995981;28;20182;-74
2023/12/04 00:57:45;;;;;;;13.07;6.47;;;-0.80;1.00;;;;;;4995265;28;20566;-74
2023/12/04 01:00:11;;;;;;;14.93;6.80;;;-1.00;1.00;;;;;;5002688;28;20430;-73
2023/12/04 01:02:37;;;;;;;11.90;5.57;;;-0.70;1.00;;;;;;4991009;28;20197;-74
2023/12/04 01:05:02;;;;;;;12.43;6.10;;;-0.80;1.00;;;;;;4998463;28;20552;-74
2023/12/04 01:07:29;;;;;;;14.53;7.07;;;-0.70;1.00;;;;;;4995316;28;20183;-75
2023/12/04 01:09:54;;;;;;;11.70;6.20;;;-1.00;1.00;;;;;;4994334;28;20198;-75
2023/12/04 01:12:21;;;;;;;11.87;6.27;;;-0.80;1.00;;;;;;4997687;28;20493;-74
2023/12/04 01:14:46;;;;;;;11.53;6.23;;;-1.10;1.00;;;;;;4988810;28;20187;-74
2023/12/04 01:17:12;;;;;;;12.27;6.60;;;-1.10;1.00;;;;;;4988203;28;20434;-75
2023/12/04 01:19:37;;;;;;;10.97;6.27;;;-1.20;1.00;;;;;;4990452;28;20574;-73
2023/12/04 01:22:03;;;;;;;14.27;7.00;;;-0.80;1.00;;;;;;4990062;28;20198;-75
2023/12/04 01:24:28;;;;;;;12.00;5.80;;;-0.70;1.00;;;;;;4988585;28;20223;-76
2023/12/04 01:26:54;;;;;;;11.97;6.27;;;-0.40;1.00;;;;;;4989464;28;20864;-74
2023/12/04 01:29:19;;;;;;;12.10;5.87;;;-0.70;1.00;;;;;;4992768;28;20681;-74
2023/12/04 01:31:45;;;;;;;13.73;6.90;;;-0.30;1.00;;;;;;4989659;28;20275;-74
2023/12/04 01:34:11;;;;;;;13.30;6.03;;;-0.70;1.00;;;;;;4991752;28;20291;-74
2023/12/04 01:36:40;;;;;;;12.30;6.33;;;-0.30;1.00;;;;;;4988532;28;20191;-73
2023/12/04 01:39:12;;;;;;;13.10;7.07;;;-0.70;1.00;;;;;;4988570;28;20277;-75
2023/12/04 01:41:37;;;;;;;13.73;6.00;;;-0.60;1.00;;;;;;4988978;28;20426;-74
2023/12/04 01:44:03;;;;;;;12.17;5.97;;;-0.10;1.00;;;;;;4988566;28;20940;-74
2023/12/04 01:46:29;;;;;;;11.37;6.13;;;-0.70;1.00;;;;;;4988034;28;20374;-74
2023/12/04 01:48:55;;;;;;;12.00;6.40;;;-0.20;1.00;;;;;;4986395;28;20684;-74
2023/12/04 01:51:21;;;;;;;13.50;5.63;;;-0.60;1.00;;;;;;5008716;28;20185;-75
2023/12/04 01:53:47;;;;;;;13.30;6.60;;;-0.60;1.00;;;;;;4989457;28;20175;-76
2023/12/04 01:56:14;;;;;;;11.50;6.00;;;-0.40;1.00;;;;;;4985868;28;20438;-74
2023/12/04 01:58:40;;;;;;;14.53;6.97;;;-0.40;1.00;;;;;;5017837;28;20488;-74
2023/12/04 02:01:06;;;;;;;10.50;5.50;;;-0.10;1.00;;;;;;4997032;28;20457;-74
2023/12/04 02:03:32;;;;;;;14.10;6.57;;;-0.60;1.00;;;;;;4988484;28;20187;-73
2023/12/04 02:06:00;;;;;;;9.57;6.03;;;-0.60;1.00;;;;;;4986747;28;20524;-74
2023/12/04 02:08:26;;;;;;;13.50;6.70;;;-0.60;1.00;;;;;;4991783;28;20465;-74
2023/12/04 02:10:51;;;;;;;12.10;5.80;;;-0.60;1.00;;;;;;4991523;28;20444;-74
2023/12/04 02:13:17;;;;;;;8.53;5.10;;;-0.70;1.00;;;;;;5024115;28;20430;-74
2023/12/04 02:15:43;;;;;;;14.70;7.13;;;-0.60;1.00;;;;;;5002003;28;20217;-74
2023/12/04 02:18:09;;;;;;;14.37;6.37;;;-0.70;1.00;;;;;;5002361;28;20623;-74
2023/12/04 02:20:35;;;;;;;11.10;6.20;;;-0.70;1.00;;;;;;5008986;28;20444;-74
2023/12/04 02:23:01;;;;;;;16.20;6.90;;;-0.50;1.00;;;;;;5003873;28;20193;-75
2023/12/04 02:25:28;;;;;;;19.80;6.90;;;-0.70;1.00;;;;;;5007716;28;20552;-74
2023/12/04 02:27:55;;;;;;;14.07;6.30;;;-0.70;1.00;;;;;;4991253;28;20430;-74
2023/12/04 02:30:24;;;;;;;15.77;6.43;;;-0.70;1.00;;;;;;4992435;28;20415;-73
2023/12/04 02:32:51;;;;;;;13.10;6.00;;;-0.50;1.00;;;;;;5001596;28;20944;-73
2023/12/04 02:35:22;;;;;;;10.67;5.67;;;-1.10;1.00;;;;;;4987183;28;20422;-74
2023/12/04 02:37:48;;;;;;;15.70;6.60;;;-0.80;1.00;;;;;;4992394;28;20457;-74
2023/12/04 02:40:15;;;;;;;10.13;5.80;;;-0.90;1.00;;;;;;4997905;28;20425;-73
2023/12/04 02:42:40;;;;;;;13.67;5.40;;;-1.20;1.00;;;;;;4995205;28;20429;-74
2023/12/04 02:45:06;;;;;;;12.67;6.60;;;-1.20;1.00;;;;;;4989462;28;20461;-74
2023/12/04 02:47:32;;;;;;;13.57;6.27;;;-0.90;1.00;;;;;;5005029;28;20206;-73
2023/12/04 02:49:57;;;;;;;10.60;5.40;;;-1.30;1.00;;;;;;5010062;28;20519;-73
2023/12/04 02:52:23;;;;;;;13.33;6.13;;;-0.70;1.00;;;;;;4997986;28;20711;-75
2023/12/04 02:54:48;;;;;;;15.47;6.47;;;-0.70;1.00;;;;;;4998399;28;20187;-74
2023/12/04 02:57:14;;;;;;;11.77;6.50;;;-0.40;1.00;;;;;;5001467;28;20210;-74
2023/12/04 02:59:39;;;;;;;12.13;5.80;;;-0.40;1.00;;;;;;4993692;28;20219;-76
2023/12/04 03:02:05;;;;;;;14.43;6.30;;;-0.60;1.00;;;;;;4993487;28;20195;-73
2023/12/04 03:04:31;;;;;;;10.70;5.47;;;-0.90;1.00;;;;;;4996655;28;20206;-74
2023/12/04 03:06:56;;;;;;;11.83;6.27;;;-0.80;1.00;;;;;;5009938;28;20187;-73
2023/12/04 03:09:22;;;;;;;12.10;5.73;;;-0.60;1.00;;;;;;4999336;28;20521;-75
2023/12/04 03:11:48;;;;;;;10.80;5.53;;;-0.30;1.00;;;;;;4993121;28;20195;-73
2023/12/04 03:14:13;;;;;;;13.30;6.73;;;-0.70;1.00;;;;;;5002775;28;20187;-73
2023/12/04 03:16:39;;;;;;;13.33;6.47;;;-0.80;1.00;;;;;;4999755;28;20194;-73
2023/12/04 03:19:04;;;;;;;13.13;6.07;;;-0.70;1.00;;;;;;4997608;28;20199;-75
2023/12/04 03:21:30;;;;;;;10.10;5.33;;;-0.40;1.00;;;;;;4991926;28;20195;-74
2023/12/04 03:23:55;;;;;;;19.00;6.03;;;-1.10;1.00;;;;;;5010344;28;20178;-73
2023/12/04 03:26:21;;;;;;;11.40;5.83;;;-0.80;1.00;;;;;;5011594;28;20232;-74
2023/12/04 03:28:46;;;;;;;16.57;6.60;;;-0.80;1.00;;;;;;4987842;28;20710;-73
2023/12/04 03:31:12;;;;;;;14.30;6.67;;;-1.30;1.00;;;;;;4999127;28;20188;-74
2023/12/04 03:33:37;;;;;;;13.53;5.90;;;-1.30;1.00;;;;;;4993429;28;20602;-73
2023/12/04 03:36:03;;;;;;;11.93;6.13;;;-0.50;1.00;;;;;;5003747;28;20653;-76
2023/12/04 03:38:29;;;;;;;14.03;6.40;;;-0.90;1.00;;;;;;4994458;28;20242;-73
2023/12/04 03:40:54;;;;;;;10.67;6.13;;;-0.90;1.00;;;;;;5000540;28;20684;-73
2023/12/04 03:43:20;;;;;;;12.43;5.57;;;-0.50;1.00;;;;;;4992759;28;20190;-73
2023/12/04 03:45:45;;;;;;;12.60;6.70;;;-0.70;1.00;;;;;;4991959;28;20725;-75
2023/12/04 03:48:11;;;;;;;13.10;6.07;;;-0.80;1.00;;;;;;5004929;28;20207;-73
2023/12/04 03:50:37;;;;;;;15.67;6.80;;;-0.90;1.00;;;;;;5006926;28;20197;-74
2023/12/04 03:53:02;;;;;;;13.60;6.57;;;-1.20;1.00;;;;;;5003514;28;20584;-74
2023/12/04 03:55:28;;;;;;;13.30;6.30;;;-0.40;1.00;;;;;;5004407;28;20186;-74
2023/12/04 03:57:54;;;;;;;11.87;5.70;;;-0.70;1.00;;;;;;4997083;28;20201;-73
2023/12/04 04:00:20;;;;;;;11.60;5.80;;;-0.90;1.00;;;;;;5007424;28;20249;-73
2023/12/04 04:02:45;;;;;;;9.60;5.50;;;-0.80;1.00;;;;;;4994863;28;20444;-74
2023/12/04 04:05:11;;;;;;;15.17;7.10;;;-0.60;1.00;;;;;;5004196;28;20627;-73
2023/12/04 04:07:36;;;;;;;17.47;7.07;;;-0.70;1.00;;;;;;5002938;28;20194;-75
2023/12/04 04:10:04;;;;;;;14.83;6.80;;;-1.10;1.00;;;;;;4992548;28;20218;-74
2023/12/04 04:12:30;;;;;;;15.43;6.13;;;-0.70;1.00;;;;;;4991766;28;20186;-74
2023/12/04 04:14:56;;;;;;;13.57;5.80;;;-0.70;1.00;;;;;;5002784;28;20457;-73
2023/12/04 04:17:21;;;;;;;13.33;6.07;;;-0.50;1.00;;;;;;4995469;28;20924;-74
2023/12/04 04:19:47;;;;;;;13.00;5.60;;;-0.60;1.00;;;;;;5003156;28;20217;-74
2023/12/04 04:22:12;;;;;;;14.87;6.47;;;-1.10;1.00;;;;;;4999903;28;20199;-73
2023/12/04 04:24:38;;;;;;;11.00;5.70;;;-0.90;1.00;;;;;;5000712;28;20214;-74
2023/12/04 04:27:03;;;;;;;10.13;5.43;;;-0.60;1.00;;;;;;4996424;28;20307;-75
2023/12/04 04:29:29;;;;;;;10.40;5.80;;;-0.50;1.00;;;;;;4996893;28;20230;-74
2023/12/04 04:31:54;;;;;;;11.30;5.57;;;-0.60;1.00;;;;;;5005438;28;20195;-74
2023/12/04 04:34:21;;;;;;;13.83;5.23;;;-0.60;1.00;;;;;;4997732;28;20186;-74
2023/12/04 04:36:47;;;;;;;14.20;6.40;;;-0.40;1.00;;;;;;5000670;28;20182;-76
2023/12/04 04:39:13;;;;;;;12.30;5.77;;;-0.50;1.00;;;;;;4979468;28;20466;-75
2023/12/04 04:41:39;;;;;;;12.47;6.30;;;-0.50;1.00;;;;;;4997470;28;20195;-75
2023/12/04 04:44:05;;;;;;;13.37;6.00;;;-0.80;1.00;;;;;;4997098;28;20426;-74
2023/12/04 04:46:31;;;;;;;10.63;5.87;;;-0.60;1.00;;;;;;4990850;28;21028;-74
2023/12/04 04:48:56;;;;;;;12.50;5.87;;;-0.60;1.00;;;;;;4990505;28;20697;-73
2023/12/04 04:51:22;;;;;;;10.93;5.30;;;-0.60;1.00;;;;;;4991190;28;20526;-74
2023/12/04 04:53:48;;;;;;;10.70;5.03;;;-0.60;1.00;;;;;;4991298;28;20241;-74
2023/12/04 04:56:14;;;;;;;10.00;5.80;;;-0.10;1.00;;;;;;4991407;28;20187;-74
2023/12/04 04:58:40;;;;;;;11.60;5.43;;;-0.90;1.00;;;;;;4986603;28;20841;-73
2023/12/04 05:01:06;;;;;;;11.90;5.37;;;-0.80;1.00;;;;;;4988687;28;20488;-73
2023/12/04 05:03:31;;;;;;;8.47;4.90;;;-0.40;1.00;;;;;;4989572;28;20680;-76
2023/12/04 05:05:57;;;;;;;9.30;4.33;;;-0.50;1.00;;;;;;5002977;28;20468;-75
2023/12/04 05:08:22;;;;;;;8.23;4.90;;;-0.50;1.00;;;;;;4989831;28;20693;-73
2023/12/04 05:10:48;;;;;;;10.67;5.23;;;-0.40;1.00;;;;;;5001636;28;20198;-73
2023/12/04 05:13:14;;;;;;;10.03;5.17;;;;;;;;;;4991532;28;20277;-75
2023/12/04 05:15:39;;;;;;;10.70;5.63;;;-0.50;1.00;;;;;;5021625;28;20751;-74
2023/12/04 05:18:05;;;;;;;9.90;5.00;;;-0.90;1.00;;;;;;4991505;28;20680;-74
2023/12/04 05:20:30;;;;;;;10.20;5.13;;;-0.90;1.00;;;;;;4987810;28;20705;-72
2023/12/04 05:22:57;;;;;;;11.10;5.20;;;-0.30;1.00;;;;;;5003028;28;20274;-74
2023/12/04 05:25:22;;;;;;;13.07;6.33;;;-1.00;1.00;;;;;;4996662;28;20219;-74
2023/12/04 05:27:48;;;;;;;11.50;4.93;;;-0.50;1.00;;;;;;4992016;28;20502;-73
2023/12/04 05:30:13;;;;;;;13.40;5.70;;;-0.50;1.00;;;;;;4991096;28;20213;-74
2023/12/04 05:32:39;;;;;;;11.63;4.40;;;-0.50;1.00;;;;;;5001853;28;20187;-74
2023/12/04 05:35:05;;;;;;;17.40;5.03;;;-0.10;1.00;;;;;;5006764;28;20195;-75
2023/12/04 05:37:30;;;;;;;9.07;5.20;;;-0.30;1.00;;;;;;5009862;28;20253;-74
2023/12/04 05:39:56;;;;;;;11.17;5.73;;;-0.40;1.00;;;;;;4997071;28;20450;-74
2023/12/04 05:42:21;;;;;;;9.27;4.23;;;-0.70;1.00;;;;;;5001652;28;20266;-74
2023/12/04 05:44:47;;;;;;;12.20;4.93;;;-0.90;1.00;;;;;;4994421;28;20210;-75
2023/12/04 05:47:12;;;;;;;8.97;5.20;;;-0.30;1.00;;;;;;5004432;28;20697;-75
2023/12/04 05:49:38;;;;;;;9.27;5.07;;;-0.60;1.00;;;;;;4997258;28;20239;-74
2023/12/04 05:52:03;;;;;;;9.07;4.63;;;-0.10;1.00;;;;;;4995841;28;20247;-74
2023/12/04 05:54:30;;;;;;;11.33;5.43;;;-0.90;1.00;;;;;;5000131;28;20394;-74
2023/12/04 05:56:55;;;;;;;11.83;5.43;;;-0.10;1.00;;;;;;4994447;28;20348;-73
2023/12/04 05:59:21;;;;;;;10.13;5.27;;;-0.50;1.00;;;;;;5000896;28;20457;-74
2023/12/04 06:01:46;;;;;;;9.20;5.13;;;-0.80;1.00;;;;;;4994273;28;20277;-74
2023/12/04 06:04:12;;;;;;;13.20;5.93;;;-0.30;1.00;;;;;;5025859;28;20261;-74
2023/12/04 06:06:37;;;;;;;10.80;5.17;;;-0.50;1.00;;;;;;4993398;28;20183;-74
2023/12/04 06:09:03;;;;;;;12.17;5.20;;;-0.60;1.00;;;;;;5022645;28;20207;-73
2023/12/04 06:11:28;;;;;;;10.37;4.90;;;-0.40;1.00;;;;;;5004396;28;20190;-74
2023/12/04 06:13:54;;;;;;;10.60;4.77;;;-0.60;1.00;;;;;;5002499;28;20187;-73
2023/12/04 06:16:19;;;;;;;11.77;5.63;;;-0.20;1.00;;;;;;5001893;28;20178;-73
2023/12/04 06:18:45;;;;;;;10.87;5.50;;;-0.50;1.00;;;;;;4992697;28;20222;-73
2023/12/04 06:21:10;;;;;;;12.07;5.40;;;-0.70;1.00;;;;;;4993303;28;20187;-74
2023/12/04 06:23:36;;;;;;;13.87;6.00;;;-0.60;1.00;;;;;;4993527;28;20191;-74
2023/12/04 06:26:02;;;;;;;11.17;5.07;;;-0.80;1.00;;;;;;4997570;28;20214;-74
2023/12/04 06:28:28;;;;;;;12.27;5.60;;;-0.60;1.00;;;;;;5011912;28;20282;-74
2023/12/04 06:30:53;;;;;;;10.10;5.07;;;-0.50;1.00;;;;;;5012041;28;20178;-75
2023/12/04 06:33:20;;;;;;;9.73;5.07;;;-0.60;1.00;;;;;;4999175;28;20183;-73
2023/12/04 06:35:46;;;;;;;10.37;4.57;;;-0.50;1.00;;;;;;4999059;28;20379;-74
2023/12/04 06:38:15;;;;;;;8.97;4.40;;;-0.70;1.00;;;;;;5000006;28;20450;-73
2023/12/04 06:40:41;;;;;;;10.47;5.37;;;-0.70;1.00;;;;;;4993725;28;20177;-74
2023/12/04 06:43:07;;;;;;;7.97;4.43;;;-0.70;1.00;;;;;;4995236;28;20876;-73
2023/12/04 06:45:33;;;;;;;9.03;4.53;;;-0.60;1.00;;;;;;5004534;28;20644;-74
2023/12/04 06:48:00;;;;;;;7.40;4.10;;;-0.50;1.00;;;;;;4994832;28;20211;-74
2023/12/04 06:50:26;;;;;;;14.80;5.37;;;-0.30;1.00;;;;;;5006466;28;20421;-74
2023/12/04 06:52:51;;;;;;;9.97;5.33;;;-0.80;1.00;;;;;;4998240;28;20423;-74
2023/12/04 06:55:17;;;;;;;11.57;4.73;;;-0.20;1.00;;;;;;5001827;28;20442;-74
2023/12/04 06:57:42;;;;;;;8.50;4.70;;;-0.10;1.00;;;;;;5009956;28;20700;-74
2023/12/04 07:00:12;;;;;;;6.80;3.87;;;-0.40;1.00;;;;;;4992078;28;20214;-75
2023/12/04 07:02:38;;;;;;;8.40;4.30;;;-0.10;1.00;;;;;;4993520;28;20210;-74
2023/12/04 07:05:03;;;;;;;7.93;3.80;;;0.10;1.00;;;;;;4989655;28;20993;-74
2023/12/04 07:07:29;;;;;;;9.43;4.43;;;-0.10;1.00;;;;;;4994652;28;20183;-74
2023/12/04 07:09:54;;;;;;;9.87;4.53;;;0.00;1.00;;;;;;5006612;28;20202;-73
2023/12/04 07:12:20;;;;;;;8.90;4.10;;;-0.50;1.00;;;;;;4992356;28;20195;-74
2023/12/04 07:14:45;;;;;;;7.60;4.10;;;-0.10;1.00;;;;;;4991290;28;20191;-76
2023/12/04 07:17:11;;;;;;;8.27;4.70;;;-0.10;1.00;;;;;;4988182;28;20286;-75
2023/12/04 07:19:36;;;;;;;9.20;4.30;;;0.10;1.00;;;;;;4991119;28;20199;-73
2023/12/04 07:22:02;;;;;;;7.63;3.87;;;0.00;1.00;;;;;;4990901;28;20683;-72
2023/12/04 07:24:28;;;;;;;11.83;4.60;;;0.10;1.00;;;;;;4992034;28;20206;-73
2023/12/04 07:26:53;;;;;;;7.47;4.47;;;0.10;1.00;;;;;;4989566;28;20362;-75
2023/12/04 07:29:19;;;;;;;7.33;4.00;;;0.50;1.00;;;;;;5001900;28;20203;-74
2023/12/04 07:31:44;;;;;;;8.20;3.50;;;0.60;1.00;;;;;;4989092;28;20215;-74
2023/12/04 07:34:10;;;;;;;7.70;3.87;;;0.50;1.00;;;;;;4988483;28;20660;-75
2023/12/04 07:36:35;;;;;;;10.80;5.00;;;0.30;1.00;;;;;;4990719;28;20179;-73
2023/12/04 07:39:01;;;;;;;9.27;4.43;;;0.40;1.00;;;;;;4997055;28;20249;-75
2023/12/04 07:41:27;;;;;;;7.50;4.40;;;0.40;1.00;;;;;;4997745;28;20248;-74
2023/12/04 07:43:52;;;;;;;7.37;4.07;;;0.40;1.00;;;;;;4988261;28;20183;-74
2023/12/04 07:46:18;;;;;;;6.30;3.70;;;1.00;1.00;;;;;;4994951;28;20257;-74
2023/12/04 07:48:46;;;;;;;9.13;4.93;;;0.90;1.00;;;;;;4995979;28;20225;-74
2023/12/04 07:51:12;;;;;;;9.70;5.47;;;0.70;1.00;;;;;;4975924;28;20575;-74
2023/12/04 07:53:37;;;;;;;12.43;5.17;;;0.40;1.00;;;;;;4993553;28;20302;-78
2023/12/04 07:56:03;;;;;;;9.50;4.50;;;0.80;1.00;;;;;;5013771;23;20838;-77
2023/12/04 07:58:31;;;;;;;9.43;4.80;;;0.80;1.00;;;;;;5012396;28;20668;-73
2023/12/04 08:00:56;;;;;;;8.20;4.60;;;1.20;1.00;;;;;;5009326;28;20512;-76
2023/12/04 08:03:23;;;;;;;7.07;4.10;;;1.10;1.00;;;;;;5008976;28;20905;-76
2023/12/04 08:05:51;;;;;;;11.47;4.23;;;0.90;1.00;;;;;;5009427;28;20226;-76
2023/12/04 08:08:17;;;;;;;6.40;3.50;;;0.90;1.00;;;;;;5004441;28;21309;-74
2023/12/04 08:10:42;;;;;;;8.57;4.07;;;1.50;1.00;;;;;;5008633;28;20453;-75
2023/12/04 08:13:08;;;;;;;8.17;4.40;;;1.70;1.00;;;;;;5009957;28;20227;-77
2023/12/04 08:15:33;;;;;;;11.10;4.73;;;1.10;1.00;;;;;;5007918;28;20273;-77
2023/12/04 08:18:00;;;;;;;7.07;3.70;;;1.20;1.00;;;;;;5007229;28;20348;-75
2023/12/04 08:20:25;;;;;;;6.80;3.73;;;1.50;1.00;;;;;;5002358;28;20190;-75
2023/12/04 08:22:51;;;;;;;7.73;3.77;;;1.30;1.00;;;;;;5016155;28;20429;-73
2023/12/04 08:25:17;;;;;;;8.10;4.07;;;1.10;1.00;;;;;;5006704;28;20669;-73
2023/12/04 08:27:42;;;;;;;9.47;4.43;;;1.50;1.00;;;;;;5005772;28;20209;-77
2023/12/04 08:30:08;;;;;;;8.93;4.03;;;1.10;1.00;;;;;;5001208;28;20179;-75
2023/12/04 08:32:34;;;;;;;10.30;3.80;;;1.20;1.00;;;;;;5008595;28;20182;-75
2023/12/04 08:34:59;;;;;;;8.63;4.20;;;1.30;1.00;;;;;;5000828;28;20193;-75
2023/12/04 08:37:25;;;;;;;7.17;3.93;;;1.80;1.00;;;;;;5007713;28;20209;-77
2023/12/04 08:39:50;;;;;;;9.33;4.40;;;1.60;1.00;;;;;;5006273;28;20190;-77
2023/12/04 08:42:16;;;;;;;9.67;4.47;;;1.20;1.00;;;;;;5004306;28;20190;-73
2023/12/04 08:44:42;;;;;;;6.60;4.33;;;1.30;1.00;;;;;;5007352;28;20288;-75
2023/12/04 08:47:08;;;;;;;6.50;3.80;;;1.40;1.00;;;;;;5007810;28;20302;-75
2023/12/04 08:49:34;;;;;;;8.07;4.60;;;1.40;1.00;;;;;;5008629;28;20982;-75
2023/12/04 08:51:59;;;;;;;8.90;3.97;;;1.60;1.00;;;;;;5006828;28;20182;-76
2023/12/04 08:54:25;;;;;;;8.10;4.13;;;1.70;1.00;;;;;;5008113;28;20222;-75
2023/12/04 08:56:51;;;;;;;8.30;4.90;;;2.20;1.00;;;;;;5007746;28;20207;-76
2023/12/04 08:59:16;;;;;;;8.53;4.20;;;2.10;1.00;;;;;;5008266;28;20174;-76
2023/12/04 09:01:43;;;;;;;8.30;4.83;;;2.30;1.00;;;;;;5000204;28;20191;-76
2023/12/04 09:04:09;;;;;;;6.10;4.50;;;2.20;1.00;;;;;;5001198;28;20548;-76
2023/12/04 09:06:35;;;;;;;9.30;4.30;;;2.20;1.00;;;;;;5004258;28;20871;-76
2023/12/04 09:09:00;;;;;;;8.60;4.33;;;2.10;1.00;;;;;;5013049;28;20804;-76
2023/12/04 09:11:26;;;;;;;7.47;4.50;;;2.10;1.00;;;;;;5005404;28;20209;-75
2023/12/04 09:13:51;;;;;;;7.03;4.10;;;2.10;1.00;;;;;;5005623;28;20186;-76
2023/12/04 09:16:17;;;;;;;9.03;4.30;;;2.10;1.00;;;;;;5000940;28;20203;-76
2023/12/04 09:18:42;;;;;;;10.00;4.63;;;2.10;1.00;;;;;;5009895;28;20261;-76
2023/12/04 09:21:08;;;;;;;8.80;4.40;;;2.00;1.00;;;;;;5010165;28;20269;-75
2023/12/04 09:23:35;;;;;;;8.53;4.67;;;1.80;1.00;;;;;;5008177;28;20618;-75
2023/12/04 09:26:01;;;;;;;8.17;4.37;;;1.80;1.00;;;;;;5009584;28;20225;-76
2023/12/04 09:28:26;;;;;;;10.00;4.70;;;1.80;1.00;;;;;;5009820;28;20437;-76
2023/12/04 09:30:53;;;;;;;6.87;3.90;;;2.30;1.00;;;;;;5008714;28;20258;-76
2023/12/04 09:33:18;;;;;;;13.07;4.30;;;2.00;1.00;;;;;;5006418;28;20190;-76
2023/12/04 09:35:44;;;;;;;8.30;4.60;;;2.50;1.00;;;;;;5005283;28;20421;-76
2023/12/04 09:38:10;;;;;;;8.60;4.43;;;2.50;1.00;;;;;;5011794;28;20186;-78
2023/12/04 09:40:35;;;;;;;7.57;4.50;;;2.20;1.00;;;;;;5011547;28;20187;-77
2023/12/04 09:43:01;;;;;;;9.83;4.90;;;2.80;1.00;;;;;;5004379;28;20447;-76
2023/12/04 09:45:29;;;;;;;9.50;4.70;;;2.90;1.00;;;;;;5011791;28;20202;-76
2023/12/04 09:47:56;;;;;;;5.63;3.97;;;2.40;1.00;;;;;;5007745;28;20199;-73
2023/12/04 09:50:22;;;;;;;8.27;3.90;;;2.40;1.00;;;;;;5006315;28;20418;-76
2023/12/04 09:52:51;;;;;;;7.33;4.20;;;2.40;1.00;;;;;;5008385;28;20432;-75
2023/12/04 09:55:17;;;;;;;11.80;4.80;;;2.40;1.00;;;;;;5011202;28;20425;-72
2023/12/04 09:57:45;;;;;;;8.47;4.43;;;2.40;1.00;;;;;;5010545;28;20951;-76
2023/12/04 10:00:12;;;;;;;10.60;4.63;;;2.40;1.00;;;;;;5002950;28;20187;-76
2023/12/04 10:02:39;;;;;;;8.07;4.10;;;2.20;1.00;;;;;;5011506;28;20479;-76
2023/12/04 10:05:05;;;;;;;8.93;5.13;;;2.20;1.00;;;;;;5011808;28;20476;-76
2023/12/04 10:07:31;;;;;;;9.00;4.03;;;2.20;1.00;;;;;;5007476;28;20460;-76
2023/12/04 10:09:57;;;;;;;7.73;4.40;;;2.30;1.00;;;;;;5009203;28;20512;-77
2023/12/04 10:12:22;;;;;;;11.93;4.80;;;2.40;1.00;;;;;;4998625;28;20179;-76
2023/12/04 10:15:04;;;;;;;7.10;4.40;;;4.00;1.00;;;;;;5012559;28;20692;-76
2023/12/04 10:17:35;;;;;;;7.10;4.47;;;2.00;1.00;;;;;;5013438;28;20206;-78
2023/12/04 10:20:12;;;;;;;7.83;5.20;;;1.90;1.00;;;;;;5010999;28;20449;-76
2023/12/04 10:22:55;;;;;;;10.50;4.47;;;1.80;1.00;;;;;;5005486;28;20480;-76
2023/12/04 10:25:21;;;;;;;9.83;5.03;;;1.80;1.00;;;;;;5007457;28;20467;-75
2023/12/04 10:27:47;;;;;;;8.80;4.80;;;2.20;1.00;;;;;;5005330;28;20441;-76
2023/12/04 10:30:27;;;;;;;8.67;4.87;;;1.90;1.00;;;;;;5010142;28;20476;-76
2023/12/04 10:33:07;;;;;;;8.10;4.40;;;1.90;1.00;;;;;;5006196;28;20775;-77
2023/12/04 10:35:37;;;;;;;10.10;4.97;;;2.00;1.00;;;;;;5006355;28;20422;-76
2023/12/04 10:38:06;;;;;;;8.33;4.30;;;2.10;1.00;;;;;;5010129;28;20426;-76
2023/12/04 10:40:33;;;;;;;7.53;4.83;;;2.20;1.00;;;;;;5005187;28;20422;-76
2023/12/04 10:43:11;;;;;;;9.07;4.97;;;2.30;1.00;;;;;;5010571;28;20509;-75
2023/12/04 10:45:38;;;;;;;10.43;4.40;;;;;;;;;;5005945;28;20871;-76
2023/12/04 10:48:04;;;;;;;8.67;4.73;;;2.50;1.00;;;;;;5006630;28;20761;-76
2023/12/04 10:50:34;;;;;;;9.37;4.80;;;2.50;1.00;;;;;;5002394;28;20417;-75
2023/12/04 10:53:02;;;;;;;8.53;4.90;;;2.40;1.00;;;;;;5011116;28;20428;-74
2023/12/04 10:55:27;;;;;;;8.70;4.53;;;2.40;1.00;;;;;;5008953;28;20432;-77
2023/12/04 10:57:54;;;;;;;16.47;5.77;;;4.10;1.00;;;;;;5009427;28;20812;-76
2023/12/04 11:00:21;;;;;;;7.93;4.73;;;2.70;1.00;;;;;;5006306;28;20193;-77
2023/12/04 11:02:48;;;;;;;9.90;5.00;;;2.10;1.00;;;;;;5012220;28;20436;-78
2023/12/04 11:05:21;;;;;;;12.30;5.10;;;2.10;1.00;;;;;;5007468;28;20470;-77
2023/12/04 11:08:08;;;;;;;7.00;4.53;;;2.10;1.00;;;;;;5006180;28;20441;-78
2023/12/04 11:10:41;;;;;;;8.17;4.57;;;2.10;1.00;;;;;;5005657;28;20946;-77
2023/12/04 11:13:14;;;;;;;8.23;4.00;;;2.40;1.00;;;;;;5003420;28;20428;-77
2023/12/04 11:15:45;;;;;;;9.73;4.57;;;1.90;1.00;;;;;;5008727;28;20972;-77
2023/12/04 11:18:14;;;;;;;9.10;4.67;;;2.30;1.00;;;;;;5003986;28;20420;-76
2023/12/04 11:20:46;;;;;;;8.47;4.70;;;1.70;1.00;;;;;;5005723;28;20429;-77
2023/12/04 11:23:14;;;;;;;10.73;5.57;;;2.00;1.00;;;;;;5004658;28;20571;-78
2023/12/04 11:25:40;;;;;;;9.13;5.03;;;1.40;1.00;;;;;;5008137;28;20982;-77
2023/12/04 11:28:06;;;;;;;10.20;5.50;;;1.40;1.00;;;;;;5010316;28;20515;-77
2023/12/04 11:30:32;;;;;;;12.60;6.77;;;1.40;1.00;;;;;;5010577;28;20421;-76
2023/12/04 11:33:00;;;;;;;9.77;5.33;;;1.30;1.00;;;;;;5009025;28;20498;-77
2023/12/04 11:35:26;;;;;;;10.90;5.17;;;1.20;1.00;;;;;;5007833;28;20422;-75
2023/12/04 11:37:52;;;;;;;10.77;5.70;;;1.60;1.00;;;;;;5009332;28;20874;-76
2023/12/04 11:40:18;;;;;;;10.23;5.80;;;1.70;1.00;;;;;;5009186;28;20186;-77
2023/12/04 11:42:44;;;;;;;11.53;5.70;;;1.30;1.00;;;;;;5007431;28;20432;-77
2023/12/04 11:45:10;;;;;;;10.70;6.20;;;1.30;1.00;;;;;;5010199;28;20220;-76
2023/12/04 11:47:59;;;;;;;9.20;5.43;;;1.30;1.00;;;;;;5007457;28;20698;-73
2023/12/04 11:50:25;;;;;;;11.97;6.00;;;1.80;1.00;;;;;;5005260;28;20430;-76
2023/12/04 11:52:51;;;;;;;11.87;6.37;;;1.30;1.00;;;;;;4997450;28;20461;-76
2023/12/04 11:55:23;;;;;;;9.90;5.40;;;1.50;1.00;;;;;;5010504;28;20511;-76
2023/12/04 11:57:50;;;;;;;12.03;5.53;;;1.80;1.00;;;;;;5003033;28;20206;-76
2023/12/04 12:00:24;;;;;;;11.47;6.07;;;1.50;1.00;;;;;;5006736;28;20436;-76
2023/12/04 12:02:52;;;;;;;11.20;5.67;;;1.50;1.00;;;;;;5002725;28;20908;-78
2023/12/04 12:05:19;;;;;;;10.90;5.60;;;1.40;1.00;;;;;;5009985;28;20461;-77
2023/12/04 12:07:45;;;;;;;8.63;5.30;;;1.40;1.00;;;;;;5007084;28;20828;-76
2023/12/04 12:10:13;;;;;;;10.53;5.40;;;1.80;1.00;;;;;;5008285;28;20784;-76
2023/12/04 12:12:39;;;;;;;10.80;5.87;;;1.60;1.00;;;;;;5010077;28;20434;-73
2023/12/04 12:15:09;;;;;;;12.70;5.93;;;1.70;1.00;;;;;;5005882;28;20425;-76
2023/12/04 12:17:34;;;;;;;13.53;5.60;;;1.30;1.00;;;;;;5008702;28;20449;-77
2023/12/04 12:20:00;;;;;;;12.87;6.90;;;1.30;1.00;;;;;;5008950;28;20429;-76
2023/12/04 12:22:25;;;;;;;12.50;5.77;;;1.60;1.00;;;;;;5001746;28;20191;-76
2023/12/04 12:24:51;;;;;;;11.00;6.07;;;1.20;1.00;;;;;;5007049;28;20213;-75
2023/12/04 12:27:17;;;;;;;11.00;5.90;;;1.30;1.00;;;;;;5006740;28;20198;-78
2023/12/04 12:29:43;;;;;;;12.20;5.93;;;1.10;1.00;;;;;;5007971;28;20189;-76
2023/12/04 12:32:08;;;;;;;9.53;5.10;;;1.00;1.00;;;;;;5004426;28;20212;-78
2023/12/04 12:34:35;;;;;;;10.87;6.10;;;1.00;1.00;;;;;;5009731;28;20182;-76
2023/12/04 12:37:03;;;;;;;10.20;6.10;;;1.40;1.00;;;;;;5003807;28;20196;-78
2023/12/04 12:39:29;;;;;;;11.60;6.20;;;1.10;1.00;;;;;;5009181;28;20413;-76
2023/12/04 12:41:55;;;;;;;10.77;5.97;;;1.20;1.00;;;;;;5002788;28;20675;-77
2023/12/04 12:44:20;;;;;;;12.17;6.03;;;1.70;1.00;;;;;;5004869;28;20504;-75
2023/12/04 12:46:50;;;;;;;10.00;5.57;;;1.50;1.00;;;;;;5000811;28;20268;-76
2023/12/04 12:49:22;;;;;;;11.57;5.97;;;1.60;1.00;;;;;;5008800;28;20174;-75
2023/12/04 12:51:48;;;;;;;15.43;6.93;;;2.10;1.00;;;;;;5007385;28;20429;-78